Terminal Aerodrome Forecast
Issued by NWS Shreveport, LA

Home | Current Version | Previous Version | Text Only | Print | Product List | Glossary On
Versions: 1 2 3 4 5 6 7 8 9 10 11 12 13
492
FTUS44 KSHV 192321
TAFTYR
TAF
KTYR 192321Z 2000/2024 17008KT P6SM FEW045 SCT250
      TEMPO 2008/2010 BKN004
     FM201000 18008KT P6SM BKN008 OVC025
     FM201500 19012KT P6SM BKN025
     FM201800 19012KT P6SM SCT035
     FM202100 19012KT P6SM SCT045=

USA.gov is the U.S. government's official web portal to all federal, state and local government web resources and services.